Time;durP1;ratioP1;P1;durP2;ratioP2;P2;SDS_P1;SDS_P2;PMS_P1;PMS_P2;Temp;Humidity;BMP_temperature;BMP_pressure;BME280_temperature;BME280_humidity;BME280_pressure;Samples;Min_cycle;Max_cycle;Signal;HPM_P1;HPM_P2
2024/04/05 17:58:39;;;;;;;0.00;0.00;;;;;;;;;;6335109;22;20023;-92
2024/04/05 18:01:05;;;;;;;0.00;0.00;;;;;;;;;;6295842;22;20003;-90
2024/04/05 18:03:31;;;;;;;0.00;0.00;;;;;;;;;;6276112;22;20099;-90
2024/04/05 18:05:57;;;;;;;0.00;0.00;;;;;;;;;;6278422;22;19999;-90
2024/04/05 18:08:23;;;;;;;0.00;0.00;;;;;;;;;;6279311;22;20438;-90
2024/04/05 18:10:49;;;;;;;0.00;0.00;;;;;;;;;;6279684;22;20505;-91
2024/04/05 18:13:14;;;;;;;0.00;0.00;;;;;;;;;;6298133;22;19988;-91
2024/04/05 18:15:42;;;;;;;0.00;0.00;;;15.10;99.90;;;;;;6281782;22;20022;-91
2024/04/05 18:18:08;;;;;;;0.00;0.00;;;;;;;;;;6300982;22;20019;-91
2024/04/05 18:20:33;;;;;;;0.00;0.00;;;;;;;;;;6281108;22;20589;-91
2024/04/05 18:23:00;;;;;;;0.00;0.00;;;;;;;;;;6280610;22;20052;-91
2024/04/05 18:25:27;;;;;;;0.00;0.00;;;;;;;;;;6277834;22;20428;-92
2024/04/05 18:27:53;;;;;;;0.00;0.00;;;;;;;;;;6282472;22;20003;-91
2024/04/05 18:30:19;;;;;;;0.00;0.00;;;;;;;;;;6281617;22;20007;-92
2024/04/05 18:32:45;;;;;;;0.00;0.00;;;;;;;;;;6281653;22;20013;-92
2024/04/05 18:35:14;;;;;;;0.00;0.00;;;14.90;99.90;;;;;;6279642;22;20003;-91
2024/04/05 18:37:41;;;;;;;0.00;0.00;;;;;;;;;;6277884;22;20097;-91
2024/04/05 18:40:09;;;;;;;0.00;0.00;;;14.80;99.90;;;;;;6278576;22;20003;-91
2024/04/05 18:42:39;;;;;;;0.00;0.00;;;;;;;;;;6281347;22;20325;-93
2024/04/05 18:45:17;;;;;;;;;;;14.80;99.90;;;;;;6279850;22;20530;-92
2024/04/05 18:47:43;;;;;;;0.00;0.00;;;;;;;;;;6285952;22;20465;-92
2024/04/05 18:50:09;;;;;;;0.00;0.00;;;;;;;;;;6294520;22;20003;-93
2024/04/05 18:52:35;;;;;;;0.00;0.00;;;;;;;;;;6296769;22;19999;-95
2024/04/05 18:55:01;;;;;;;0.00;0.00;;;;;;;;;;6294932;22;20432;-92
2024/04/05 18:57:34;;;;;;;0.00;0.00;;;;;;;;;;6299853;22;20026;-94
2024/04/05 19:00:05;;;;;;;0.00;0.00;;;14.70;99.90;;;;;;6329763;22;19992;-94
2024/04/05 19:02:32;;;;;;;0.00;0.00;;;;;;;;;;6306330;22;20027;-96
2024/04/05 19:05:00;;;;;;;0.00;0.00;;;14.60;99.90;;;;;;6330801;22;20003;-93
2024/04/05 19:07:28;;;;;;;0.00;0.00;;;14.60;99.90;;;;;;6321792;22;20021;-93
2024/04/05 19:09:58;;;;;;;0.00;0.00;;;14.60;99.90;;;;;;6322896;22;19999;-93
2024/04/05 19:12:24;;;;;;;;;;;14.60;99.90;;;;;;6316872;22;20082;-91
2024/04/05 19:14:50;;;;;;;0.00;0.00;;;;;;;;;;6318336;22;19899;-92
2024/04/05 19:17:16;;;;;;;0.00;0.00;;;;;;;;;;6321525;22;20003;-95
2024/04/05 19:19:42;;;;;;;0.00;0.00;;;;;;;;;;6327376;22;20007;-95
2024/04/05 19:22:10;;;;;;;0.00;0.00;;;;;;;;;;6323979;22;20552;-93
2024/04/05 19:24:38;;;;;;;0.00;0.00;;;14.60;99.90;;;;;;6320780;22;20010;-91
2024/04/05 19:27:08;;;;;;;0.00;0.00;;;;;;;;;;6318127;22;20029;-91
2024/04/05 19:29:35;;;;;;;0.00;0.00;;;14.50;99.90;;;;;;6312247;22;20340;-90
2024/04/05 19:32:04;;;;;;;0.00;0.00;;;;;;;;;;6310824;22;20004;-91
2024/04/05 19:34:37;;;;;;;0.00;0.00;;;;;;;;;;6302052;22;20507;-93
2024/04/05 19:37:12;;;;;;;0.00;0.00;;;;;;;;;;6303792;22;20491;-91
2024/04/05 19:39:38;;;;;;;0.00;0.00;;;;;;;;;;6312460;22;20003;-92
2024/04/05 19:42:04;;;;;;;0.00;0.00;;;;;;;;;;6314405;22;20003;-92
2024/04/05 19:44:33;;;;;;;0.00;0.00;;;;;;;;;;6315213;22;20024;-94
2024/04/05 19:47:01;;;;;;;0.00;0.00;;;;;;;;;;6318766;22;20007;-94
2024/04/05 19:49:26;;;;;;;0.00;0.00;;;;;;;;;;6319305;22;20003;-92
2024/04/05 19:51:57;;;;;;;0.00;0.00;;;;;;;;;;6314914;22;20082;-92
2024/04/05 19:54:23;;;;;;;0.00;0.00;;;;;;;;;;6303781;22;20455;-92
2024/04/05 19:56:49;;;;;;;0.00;0.00;;;;;;;;;;6303099;22;20169;-91
2024/04/05 19:59:15;;;;;;;0.00;0.00;;;;;;;;;;6277892;22;20072;-91
2024/04/05 20:01:41;;;;;;;0.00;0.00;;;;;;;;;;6289816;22;19993;-94
2024/04/05 20:04:08;;;;;;;0.00;0.00;;;;;;;;;;6291600;22;20071;-94
2024/04/05 20:06:35;;;;;;;0.00;0.00;;;;;;;;;;6290422;22;19979;-94
2024/04/05 20:09:01;;;;;;;0.00;0.00;;;;;;;;;;6299785;22;20010;-94
2024/04/05 20:11:27;;;;;;;0.00;0.00;;;;;;;;;;6296824;22;20060;-95
2024/04/05 20:13:53;;;;;;;0.00;0.00;;;;;;;;;;6298296;22;20098;-96
2024/04/05 20:16:19;;;;;;;0.10;0.10;;;;;;;;;;6280142;22;19996;-92
2024/04/05 20:18:45;;;;;;;0.00;0.00;;;;;;;;;;6276314;22;20078;-91
2024/04/05 20:21:11;;;;;;;0.00;0.00;;;;;;;;;;6278095;22;20030;-92
2024/04/05 20:23:37;;;;;;;0.00;0.00;;;;;;;;;;6275056;22;20148;-92
2024/04/05 20:26:03;;;;;;;0.00;0.00;;;;;;;;;;6275874;22;20064;-92
2024/04/05 20:34:02;;;;;;;0.00;0.00;;;14.50;99.90;;;;;;6305380;22;20011;-90
2024/04/05 20:36:28;;;;;;;0.00;0.00;;;;;;;;;;6278093;22;20060;-92
2024/04/05 20:38:54;;;;;;;0.00;0.00;;;;;;;;;;6279191;22;20004;-91
2024/04/05 20:41:20;;;;;;;0.00;0.00;;;;;;;;;;6278460;22;20023;-92
2024/04/05 20:43:46;;;;;;;0.00;0.00;;;;;;;;;;6277899;22;20006;-92
2024/04/05 20:46:12;;;;;;;0.00;0.00;;;;;;;;;;6276780;22;19999;-91
2024/04/05 20:48:38;;;;;;;0.00;0.00;;;;;;;;;;6278272;22;20005;-91
2024/04/05 20:51:04;;;;;;;0.00;0.00;;;;;;;;;;6278368;22;20536;-91
2024/04/05 20:53:30;;;;;;;0.10;0.10;;;;;;;;;;6278071;22;19999;-92
2024/04/05 20:55:56;;;;;;;0.00;0.00;;;;;;;;;;6278569;22;20436;-91
2024/04/05 20:58:22;;;;;;;0.00;0.00;;;;;;;;;;6297275;22;20007;-91
2024/04/05 21:00:48;;;;;;;0.00;0.00;;;;;;;;;;6303418;22;20468;-92
2024/04/05 21:03:14;;;;;;;0.00;0.00;;;;;;;;;;6304568;22;20014;-90
2024/04/05 21:05:46;;;;;;;0.00;0.00;;;14.30;99.90;;;;;;6304344;22;20004;-91
2024/04/05 21:08:12;;;;;;;0.00;0.00;;;;;;;;;;6303639;22;20360;-91
2024/04/05 21:10:38;;;;;;;0.00;0.00;;;;;;;;;;6305062;22;20006;-91
2024/04/05 21:13:04;;;;;;;0.00;0.00;;;;;;;;;;6307657;22;20444;-91
2024/04/05 21:15:30;;;;;;;0.00;0.00;;;;;;;;;;6307443;22;20094;-91
2024/04/05 21:17:56;;;;;;;0.00;0.00;;;;;;;;;;6303962;22;20291;-90
2024/04/05 21:20:22;;;;;;;0.00;0.00;;;14.10;99.90;;;;;;6312999;22;20021;-92
2024/04/05 21:22:48;;;;;;;0.00;0.00;;;;;;;;;;6333465;22;20038;-91
2024/04/05 21:25:14;;;;;;;0.00;0.00;;;;;;;;;;6330579;22;20010;-91
2024/04/05 21:27:40;;;;;;;0.00;0.00;;;;;;;;;;6319161;22;20011;-91
2024/04/05 21:30:07;;;;;;;0.00;0.00;;;;;;;;;;6310511;22;20515;-91
2024/04/05 21:32:33;;;;;;;0.00;0.00;;;;;;;;;;6308081;22;20003;-91
2024/04/05 21:34:59;;;;;;;0.00;0.00;;;;;;;;;;6306483;22;20000;-91
2024/04/05 21:37:25;;;;;;;0.00;0.00;;;;;;;;;;6305638;22;20059;-91
2024/04/05 21:39:52;;;;;;;0.00;0.00;;;;;;;;;;6306091;22;20003;-91
2024/04/05 21:42:18;;;;;;;0.00;0.00;;;;;;;;;;6306413;22;20003;-90
2024/04/05 21:44:44;;;;;;;0.00;0.00;;;;;;;;;;6305904;22;20004;-91
2024/04/05 21:47:10;;;;;;;0.00;0.00;;;;;;;;;;6305114;22;20101;-90
2024/04/05 21:49:37;;;;;;;0.00;0.00;;;13.90;99.90;;;;;;6305692;22;20062;-89
2024/04/05 21:52:03;;;;;;;0.00;0.00;;;;;;;;;;6305592;22;20007;-91
2024/04/05 21:54:29;;;;;;;0.00;0.00;;;;;;;;;;6305896;22;19999;-90
2024/04/05 21:56:55;;;;;;;0.00;0.00;;;;;;;;;;6305681;22;20317;-90
2024/04/05 21:59:25;;;;;;;0.00;0.00;;;;;;;;;;6275311;22;20500;-91
2024/04/05 22:01:52;;;;;;;0.00;0.00;;;;;;;;;;6280392;22;20003;-91
2024/04/05 22:04:18;;;;;;;0.00;0.00;;;;;;;;;;6279518;22;20060;-91
2024/04/05 22:06:44;;;;;;;0.00;0.00;;;;;;;;;;6280083;22;20049;-91
2024/04/05 22:09:10;;;;;;;0.00;0.00;;;;;;;;;;6277902;22;20378;-91
2024/04/05 22:11:36;;;;;;;0.08;0.08;;;;;;;;;;6278130;22;20374;-91
2024/04/05 22:14:03;;;;;;;0.00;0.00;;;13.70;99.90;;;;;;6279060;22;20403;-91
2024/04/05 22:16:28;;;;;;;0.00;0.00;;;;;;;;;;6279642;22;19999;-92
2024/04/05 22:18:54;;;;;;;0.00;0.00;;;;;;;;;;6280389;22;20013;-92
2024/04/05 22:21:21;;;;;;;0.00;0.00;;;;;;;;;;6279416;22;20010;-89
2024/04/05 22:23:47;;;;;;;0.00;0.00;;;;;;;;;;6281071;22;20053;-91
2024/04/05 22:26:13;;;;;;;0.00;0.00;;;;;;;;;;6281919;22;20003;-91
2024/04/05 22:28:39;;;;;;;0.00;0.00;;;;;;;;;;6279806;22;19991;-91
2024/04/05 22:31:05;;;;;;;0.00;0.00;;;;;;;;;;6279663;22;20003;-91
2024/04/05 22:33:31;;;;;;;0.00;0.00;;;;;;;;;;6279838;22;20114;-91
2024/04/05 22:35:57;;;;;;;0.00;0.00;;;;;;;;;;6279027;22;20007;-91
2024/04/05 22:38:23;;;;;;;0.00;0.00;;;;;;;;;;6279258;22;20008;-89
2024/04/05 22:40:49;;;;;;;0.00;0.00;;;;;;;;;;6280028;22;19995;-91
2024/04/05 22:43:15;;;;;;;0.00;0.00;;;;;;;;;;6278290;22;20104;-92
2024/04/05 22:45:41;;;;;;;0.00;0.00;;;;;;;;;;6279403;22;19999;-91
2024/04/05 22:48:07;;;;;;;0.00;0.00;;;;;;;;;;6279790;22;20014;-91
2024/04/05 22:50:33;;;;;;;0.00;0.00;;;;;;;;;;6279800;22;20132;-91
2024/04/05 22:52:59;;;;;;;0.00;0.00;;;;;;;;;;6280291;22;20007;-91
2024/04/05 22:55:25;;;;;;;0.00;0.00;;;;;;;;;;6281993;22;20431;-92
2024/04/05 22:57:51;;;;;;;0.00;0.00;;;;;;;;;;6295001;22;20075;-91
2024/04/05 23:00:17;;;;;;;0.00;0.00;;;;;;;;;;6307913;22;20041;-89
2024/04/05 23:02:43;;;;;;;0.00;0.00;;;;;;;;;;6306203;22;20007;-90
2024/04/05 23:05:09;;;;;;;0.00;0.00;;;;;;;;;;6304218;22;20003;-90
2024/04/05 23:07:36;;;;;;;0.00;0.00;;;;;;;;;;6305010;22;20003;-90
2024/04/05 23:10:04;;;;;;;0.00;0.00;;;;;;;;;;6306390;22;19995;-90
2024/04/05 23:12:30;;;;;;;0.00;0.00;;;;;;;;;;6305225;22;20003;-91
2024/04/05 23:14:56;;;;;;;0.00;0.00;;;;;;;;;;6305078;22;20124;-90
2024/04/05 23:17:22;;;;;;;0.00;0.00;;;;;;;;;;6305653;22;20412;-90
2024/04/05 23:19:48;;;;;;;0.00;0.00;;;;;;;;;;6305783;22;20003;-91
2024/04/05 23:22:14;;;;;;;0.00;0.00;;;;;;;;;;6304214;22;20455;-90
2024/04/05 23:24:41;;;;;;;0.00;0.00;;;;;;;;;;6303866;22;20499;-92
2024/04/05 23:27:07;;;;;;;0.00;0.00;;;;;;;;;;6303648;22;20007;-91
2024/04/05 23:29:33;;;;;;;0.00;0.00;;;;;;;;;;6304209;22;20021;-92
2024/04/05 23:31:59;;;;;;;0.00;0.00;;;;;;;;;;6304435;22;19999;-92
2024/04/05 23:34:25;;;;;;;0.00;0.00;;;;;;;;;;6303843;22;20125;-92
2024/04/05 23:36:51;;;;;;;0.00;0.00;;;;;;;;;;6302998;22;20009;-94
2024/04/05 23:39:17;;;;;;;0.00;0.00;;;;;;;;;;6304454;22;20000;-91
2024/04/05 23:41:43;;;;;;;0.00;0.00;;;;;;;;;;6303936;22;20035;-91
2024/04/05 23:44:09;;;;;;;0.00;0.00;;;;;;;;;;6304222;22;20023;-93
2024/04/05 23:46:35;;;;;;;0.00;0.00;;;;;;;;;;6304569;22;20045;-91
2024/04/05 23:49:01;;;;;;;0.00;0.00;;;;;;;;;;6304375;22;20006;-92
2024/04/05 23:51:27;;;;;;;0.00;0.00;;;;;;;;;;6304208;22;20012;-91
2024/04/05 23:53:55;;;;;;;0.00;0.00;;;13.90;99.90;;;;;;6302298;22;20442;-91
2024/04/05 23:56:26;;;;;;;0.00;0.00;;;13.90;99.90;;;;;;6303860;22;20014;-91
2024/04/05 23:58:52;;;;;;;0.00;0.00;;;;;;;;;;6303298;22;20046;-91
